Airfield :
LOGIN :

Register | Disclaimer

   EN    FR    IT 

 










Legend :    VFR   Marginal VFR   IFR   Intensive IFR   Very Intensive IFR
Visi :
Ceiling :
>= 8 km
>= 3000ft
5 to 8 km
1000 to 3000 ft
1500m to 5 km
500 to 1000 ft
800 to 1500m
200 to 500 ft
< 800m
< 200 ft
Symbols :   Thunderstorms  Fog  Heavy snow  Heavy precipitations  Wind > 20 kt
SIGMETs :     Misc.  Thunderstorms  Icing  Turbulence  Mountain Waves  Volcanic Ashes






- Airport Elevation : 755 ft
- IATA code : RWN


UKLR - Rivne

CURRENT METAR :
  • 281500Z 15004MPS 110V180 CAVOK 05/01 Q1004 NOSIG

EXPIRED METARs :
  • 281430Z 15004MPS 110V200 CAVOK 06/01 Q1004 NOSIG
  • 281400Z 15003MPS 110V180 CAVOK 06/01 Q1004 NOSIG

TAF TAF UKLR
Valid from the 28 at 12:00 until the 28 at 21:00 UTC


281101Z 2812/2821 17003G08MPS 9999 BKN020 SCT023CB TX08/2812Z TN00/2821Z
TEMPO 2815/2821 24005G10MPS 2100 -SHRASN BKN007 BKN010CB



MET'MAP, your aeronautical weather chart ! - Copyright ORBIFLY December 2007 - Disclaimer

ORBIFLY MET'MAP TEAM :

Programming & Development : Alexandra Zaïnal
Concept & original design : Baudouin d'Aumeries
Assistance for programming : Marc-Olivier Méhu
Technical & hardware support : Manuel Goepfert

Contact : metmap@orbifly.com




SOURCES & CREDITS :

   NOAA